Time;durP1;ratioP1;P1;durP2;ratioP2;P2;SDS_P1;SDS_P2;PMS_P1;PMS_P2;Temp;Humidity;BMP_temperature;BMP_pressure;BME280_temperature;BME280_humidity;BME280_pressure;Samples;Min_cycle;Max_cycle;Signal;HPM_P1;HPM_P2
2023/06/21 00:00:15;;;;;;;0.30;0.30;;;;;;;20.63;75.17;96738.47;29395;199;63004;-59
2023/06/21 00:00:51;;;;;;;0.30;0.30;;;;;;;20.67;74.91;96733.03;29395;224;63009;-60
2023/06/21 00:01:22;;;;;;;0.30;0.30;;;;;;;20.68;75.59;96724.41;29394;256;64008;-60
2023/06/21 00:01:54;;;;;;;0.30;0.30;;;;;;;20.67;75.35;96727.50;29395;219;63008;-59
2023/06/21 00:02:25;;;;;;;0.30;0.30;;;;;;;20.66;75.30;96725.91;29395;277;63005;-59
2023/06/21 00:03:00;;;;;;;0.30;0.30;;;;;;;20.64;75.23;96723.53;29395;202;63009;-59
2023/06/21 00:03:32;;;;;;;0.30;0.30;;;;;;;20.63;75.32;96721.91;29395;263;63005;-59
2023/06/21 00:04:07;;;;;;;0.30;0.30;;;;;;;20.63;75.60;96721.13;29394;220;64013;-51
2023/06/21 00:04:38;;;;;;;0.40;0.40;;;;;;;20.62;75.63;96728.59;29395;219;63005;-60
2023/06/21 00:05:10;;;;;;;0.30;0.30;;;;;;;20.62;76.02;96725.03;29395;236;63020;-60
2023/06/21 00:05:42;;;;;;;0.30;0.30;;;;;;;20.61;75.80;96724.25;29395;216;63005;-60
2023/06/21 00:06:13;;;;;;;0.30;0.30;;;;;;;20.61;76.17;96718.72;29395;220;63009;-51
2023/06/21 00:06:51;;;;;;;0.30;0.30;;;;;;;20.62;75.96;96722.28;29395;286;63004;-51
2023/06/21 00:07:23;;;;;;;0.40;0.40;;;;;;;20.63;76.31;96724.69;29395;240;63009;-60
2023/06/21 00:07:55;;;;;;;0.30;0.30;;;;;;;20.61;76.07;96713.22;29395;248;63004;-59
2023/06/21 00:08:27;;;;;;;0.30;0.30;;;;;;;20.61;75.92;96715.97;29394;219;64013;-60
2023/06/21 00:08:59;;;;;;;0.30;0.30;;;;;;;20.61;75.58;96718.72;29395;210;63004;-59
2023/06/21 00:09:30;;;;;;;0.35;0.35;;;;;;;20.61;75.66;96709.66;29394;282;64013;-52
2023/06/21 00:10:02;;;;;;;0.40;0.40;;;;;;;20.59;75.40;96710.03;29395;211;63005;-52
2023/06/21 00:10:34;;;;;;;0.40;0.40;;;;;;;20.60;75.71;96717.13;29395;231;63009;-60
2023/06/21 00:11:05;;;;;;;0.30;0.30;;;;;;;20.59;76.28;96715.53;29395;199;63001;-60
2023/06/21 00:11:39;;;;;;;0.30;0.30;;;;;;;20.57;76.72;96717.84;29395;217;63009;-61
2023/06/21 00:12:11;;;;;;;0.30;0.30;;;;;;;20.53;76.99;96716.97;29395;224;63005;-52
2023/06/21 00:12:42;;;;;;;0.40;0.40;;;;;;;20.50;76.79;96712.19;29395;282;63009;-53
2023/06/21 00:13:13;;;;;;;0.40;0.40;;;;;;;20.51;76.75;96713.78;29395;286;63005;-60
2023/06/21 00:13:45;;;;;;;0.40;0.40;;;;;;;20.50;76.78;96717.69;29394;211;64013;-51
2023/06/21 00:14:16;;;;;;;0.40;0.40;;;;;;;20.49;76.67;96709.78;29395;272;63004;-50
2023/06/21 00:14:49;;;;;;;0.40;0.40;;;;;;;20.48;77.38;96717.25;29394;252;64009;-60
2023/06/21 00:15:22;;;;;;;0.30;0.30;;;;;;;20.45;77.34;96726.25;29395;259;63004;-58
2023/06/21 00:15:54;;;;;;;0.30;0.30;;;;;;;20.43;77.54;96723.06;29395;210;63009;-59
2023/06/21 00:16:26;;;;;;;0.40;0.40;;;;;;;20.42;77.30;96721.47;29394;273;64008;-59
2023/06/21 00:17:00;;;;;;;0.40;0.40;;;;;;;20.41;77.54;96722.63;29395;202;63008;-59
2023/06/21 00:17:31;;;;;;;0.40;0.40;;;;;;;20.39;77.44;96716.69;29395;226;63005;-60
2023/06/21 00:18:03;;;;;;;0.30;0.30;;;;;;;20.37;77.70;96716.22;29395;204;63009;-50
2023/06/21 00:18:34;;;;;;;0.35;0.35;;;;;;;20.36;77.81;96717.38;29395;216;63005;-59
2023/06/21 00:19:06;;;;;;;0.40;0.40;;;;;;;20.33;78.27;96718.09;29395;198;63009;-57
2023/06/21 00:19:38;;;;;;;0.40;0.40;;;;;;;20.31;78.44;96723.16;29395;255;63005;-59
2023/06/21 00:20:12;;;;;;;0.40;0.40;;;;;;;20.29;78.45;96723.53;29394;202;64013;-59
2023/06/21 00:20:43;;;;;;;0.40;0.40;;;;;;;20.27;78.19;96725.84;29395;310;63005;-60
2023/06/21 00:21:15;;;;;;;0.40;0.40;;;;;;;20.27;78.52;96722.28;29395;236;63009;-59
2023/06/21 00:21:47;;;;;;;0.40;0.40;;;;;;;20.26;78.81;96727.00;29395;236;63004;-60
2023/06/21 00:22:21;;;;;;;0.40;0.40;;;;;;;20.27;78.70;96725.03;29394;455;64013;-60
2023/06/21 00:22:55;;;;;;;0.40;0.40;;;;;;;20.27;78.57;96719.53;29395;273;63004;-58
2023/06/21 00:23:27;;;;;;;0.40;0.40;;;;;;;20.25;78.52;96722.63;29395;207;63009;-60
2023/06/21 00:24:02;;;;;;;0.32;0.32;;;;;;;20.27;78.27;96722.28;29395;251;63004;-59
2023/06/21 00:24:33;;;;;;;0.32;0.32;;;;;;;20.26;78.42;96723.44;29395;242;63008;-50
2023/06/21 00:25:07;;;;;;;0.40;0.40;;;;;;;20.26;77.81;96731.69;29394;288;64009;-50
2023/06/21 00:25:38;;;;;;;0.40;0.40;;;;;;;20.26;77.55;96718.72;29395;232;63009;-59
2023/06/21 00:26:10;;;;;;;0.30;0.30;;;;;;;20.26;77.32;96720.69;29394;242;64009;-58
2023/06/21 00:26:41;;;;;;;0.30;0.30;;;;;;;20.24;77.33;96721.03;29394;211;64013;-59
2023/06/21 00:27:13;;;;;;;0.40;0.40;;;;;;;20.24;77.38;96726.56;29395;335;63005;-59
2023/06/21 00:27:45;;;;;;;0.30;0.30;;;;;;;20.25;77.63;96724.59;29395;202;63009;-61
2023/06/21 00:28:16;;;;;;;0.30;0.30;;;;;;;20.24;77.43;96720.25;29395;260;63005;-59
2023/06/21 00:28:48;;;;;;;0.30;0.30;;;;;;;20.23;77.65;96719.44;29395;259;63009;-59
2023/06/21 00:29:19;;;;;;;0.40;0.40;;;;;;;20.22;77.48;96728.88;29395;220;63004;-59
2023/06/21 00:29:50;;;;;;;0.30;0.30;;;;;;;20.23;77.92;96727.72;29394;202;64013;-60
2023/06/21 00:30:22;;;;;;;0.30;0.30;;;;;;;20.23;77.79;96730.47;29395;203;63004;-60
2023/06/21 00:30:53;;;;;;;0.40;0.40;;;;;;;20.25;77.57;96727.34;29395;289;63009;-58
2023/06/21 00:31:26;;;;;;;0.40;0.40;;;;;;;20.24;77.24;96729.31;29395;268;63004;-60
2023/06/21 00:31:58;;;;;;;0.30;0.30;;;;;;;20.25;77.30;96732.84;29395;236;63008;-59
2023/06/21 00:32:29;;;;;;;0.30;0.30;;;;;;;20.25;77.15;96730.09;29395;298;63005;-58
2023/06/21 00:33:02;;;;;;;0.40;0.40;;;;;;;20.25;77.02;96733.66;29395;272;63009;-59
2023/06/21 00:33:33;;;;;;;0.40;0.40;;;;;;;20.25;76.72;96735.62;29395;256;63005;-58
2023/06/21 00:34:04;;;;;;;0.40;0.40;;;;;;;20.25;76.88;96738.37;29395;256;63009;-59
2023/06/21 00:35:45;;;;;;;0.38;0.38;;;;;;;20.27;76.52;96736.06;88174;205;64004;-50
2023/06/21 00:36:16;;;;;;;0.40;0.40;;;;;;;20.27;76.20;96736.06;29394;203;64009;-50
2023/06/21 00:36:47;;;;;;;0.30;0.30;;;;;;;20.28;76.24;96748.66;29395;225;63005;-58
2023/06/21 00:37:19;;;;;;;0.30;0.30;;;;;;;20.28;76.38;96749.47;29395;255;63009;-58
2023/06/21 00:37:55;;;;;;;0.40;0.40;;;;;;;20.28;76.10;96743.97;29395;267;63005;-58
2023/06/21 00:38:26;;;;;;;0.40;0.40;;;;;;;20.29;76.28;96742.81;29395;318;63009;-58
2023/06/21 00:38:58;;;;;;;0.30;0.30;;;;;;;20.29;75.91;96744.75;29395;233;63000;-59
2023/06/21 00:39:30;;;;;;;0.30;0.30;;;;;;;20.29;76.29;96744.75;29395;238;63009;-59
2023/06/21 00:40:03;;;;;;;0.40;0.40;;;;;;;20.29;76.39;96742.00;29394;243;64009;-60
2023/06/21 00:40:35;;;;;;;0.30;0.30;;;;;;;20.29;76.33;96744.75;29394;277;64013;-58
2023/06/21 00:41:07;;;;;;;0.30;0.30;;;;;;;20.29;76.31;96742.00;29395;298;63004;-59
2023/06/21 00:41:38;;;;;;;0.40;0.40;;;;;;;20.29;76.39;96739.25;29394;304;64013;-50
2023/06/21 00:42:10;;;;;;;0.40;0.40;;;;;;;20.28;76.58;96741.19;29395;212;63004;-60
2023/06/21 00:42:42;;;;;;;0.30;0.30;;;;;;;20.29;76.54;96739.25;29395;322;63009;-59
2023/06/21 00:43:16;;;;;;;0.30;0.30;;;;;;;20.28;76.32;96732.94;29395;286;63005;-59
2023/06/21 00:43:48;;;;;;;0.37;0.37;;;;;;;20.28;76.36;96737.66;29394;225;64014;-60
2023/06/21 00:44:19;;;;;;;0.40;0.40;;;;;;;20.29;76.15;96733.75;29395;218;63005;-59
2023/06/21 00:44:52;;;;;;;0.40;0.40;;;;;;;20.30;76.50;96740.84;29395;247;63017;-59
2023/06/21 00:45:24;;;;;;;0.40;0.40;;;;;;;20.30;76.38;96736.13;29394;283;64009;-58
2023/06/21 00:45:55;;;;;;;0.40;0.40;;;;;;;20.31;76.15;96736.94;29395;198;63026;-59
2023/06/21 00:46:29;;;;;;;0.40;0.40;;;;;;;20.31;75.82;96736.94;29395;278;63005;-60
2023/06/21 00:47:02;;;;;;;0.32;0.32;;;;;;;20.32;75.89;96738.53;29395;269;63009;-59
2023/06/21 00:47:33;;;;;;;0.32;0.32;;;;;;;20.32;76.06;96738.53;29394;202;64009;-51
2023/06/21 00:48:06;;;;;;;0.30;0.30;;;;;;;20.32;76.25;96741.28;29394;279;64009;-60
2023/06/21 00:48:37;;;;;;;0.35;0.35;;;;;;;20.31;76.29;96747.97;29394;457;64009;-59
2023/06/21 00:49:09;;;;;;;0.40;0.40;;;;;;;20.31;76.27;96736.94;29395;207;63017;-59
2023/06/21 00:49:41;;;;;;;0.40;0.40;;;;;;;20.31;76.22;96736.94;29395;275;63000;-58
2023/06/21 00:50:14;;;;;;;0.40;0.40;;;;;;;20.31;76.38;96736.94;29395;277;63009;-60
2023/06/21 00:50:45;;;;;;;0.40;0.40;;;;;;;20.30;76.33;96740.84;29395;290;63001;-58
2023/06/21 00:51:17;;;;;;;0.30;0.30;;;;;;;20.31;76.35;96731.44;29395;233;63009;-50
2023/06/21 00:51:49;;;;;;;0.30;0.30;;;;;;;20.29;76.07;96740.03;29395;291;63020;-59
2023/06/21 00:52:21;;;;;;;0.30;0.30;;;;;;;20.29;76.61;96737.28;29395;244;63009;-59
2023/06/21 00:52:53;;;;;;;0.30;0.30;;;;;;;20.29;76.57;96742.81;29394;302;64009;-59
2023/06/21 00:53:27;;;;;;;0.35;0.35;;;;;;;20.28;76.77;96738.44;29395;197;63009;-59
2023/06/21 00:53:59;;;;;;;0.40;0.40;;;;;;;20.27;76.94;96747.88;29394;248;64009;-52
2023/06/21 00:54:34;;;;;;;0.30;0.30;;;;;;;20.25;77.40;96749.38;29395;270;63009;-58
2023/06/21 00:55:08;;;;;;;0.40;0.40;;;;;;;20.23;76.83;96741.47;29395;245;63016;-59
2023/06/21 00:55:40;;;;;;;0.40;0.40;;;;;;;20.23;77.22;96749.75;29395;272;63009;-58
2023/06/21 00:56:15;;;;;;;0.30;0.30;;;;;;;20.22;77.39;96750.09;29395;240;63004;-59
2023/06/21 00:56:46;;;;;;;0.40;0.40;;;;;;;20.22;77.37;96752.84;29394;234;64013;-58
2023/06/21 00:57:18;;;;;;;0.30;0.30;;;;;;;20.20;77.28;96744.94;29395;275;63004;-58
2023/06/21 00:57:51;;;;;;;0.40;0.40;;;;;;;20.20;77.39;96746.91;29394;206;64009;-50
2023/06/21 00:58:23;;;;;;;0.40;0.40;;;;;;;20.19;77.09;96753.56;29395;229;63005;-49
2023/06/21 00:58:56;;;;;;;0.30;0.30;;;;;;;20.18;77.09;96750.03;29395;283;63005;-58
2023/06/21 00:59:29;;;;;;;0.30;0.30;;;;;;;20.18;77.04;96754.72;29395;275;63005;-57
2023/06/21 01:00:01;;;;;;;0.40;0.40;;;;;;;20.15;79.46;96750.72;29395;263;63005;-58
2023/06/21 01:00:32;;;;;;;0.30;0.30;;;;;;;20.11;79.82;96749.03;29395;239;63005;-57
2023/06/21 01:01:03;;;;;;;0.40;0.40;;;;;;;20.07;79.49;96749.00;29395;208;63009;-60
2023/06/21 01:01:37;;;;;;;0.40;0.40;;;;;;;20.05;79.06;96754.84;29394;207;64009;-58
2023/06/21 01:02:11;;;;;;;0.40;0.40;;;;;;;20.03;79.26;96748.91;29394;244;64013;-59
2023/06/21 01:02:43;;;;;;;0.40;0.40;;;;;;;20.04;78.91;96747.75;29394;209;64009;-58
2023/06/21 01:03:16;;;;;;;0.40;0.40;;;;;;;20.04;78.66;96745.00;29395;274;63009;-59
2023/06/21 01:03:48;;;;;;;0.40;0.40;;;;;;;20.04;78.47;96745.00;29394;216;64009;-58
2023/06/21 01:04:19;;;;;;;0.40;0.40;;;;;;;20.04;78.64;96750.50;29395;241;63009;-57
2023/06/21 01:04:51;;;;;;;0.40;0.40;;;;;;;20.04;78.33;96747.75;29395;234;63004;-59
2023/06/21 01:05:24;;;;;;;0.40;0.40;;;;;;;20.03;78.57;96746.16;29395;210;63009;-59
2023/06/21 01:06:34;;;;;;;0.40;0.40;;;;;;;20.01;78.43;96751.22;29394;265;64009;-57
2023/06/21 01:07:36;;;;;;;0.40;0.40;;;;;;;20.01;78.05;96753.16;29395;210;63009;-58
2023/06/21 01:08:31;;;;;;;0.43;0.43;;;;;;;20.00;77.96;96746.84;29416;196;64009;-59
2023/06/21 01:09:51;;;;;;;0.40;0.40;;;;;;;20.00;77.94;96755.13;29394;223;64009;-58
2023/06/21 01:10:58;;;;;;;0.40;0.40;;;;;;;19.99;77.69;96748.00;29395;240;63004;-57
2023/06/21 01:11:52;;;;;;;0.40;0.40;;;;;;;19.99;77.51;96761.78;29395;240;63004;-59
2023/06/21 01:12:51;;;;;;;0.40;0.40;;;;;;;19.98;77.72;96760.19;29394;210;64013;-61
2023/06/21 01:13:54;;;;;;;0.40;0.40;;;;;;;19.97;77.56;96753.09;29395;232;63009;-58
2023/06/21 01:15:11;;;;;;;0.40;0.40;;;;;;;19.97;77.12;96758.59;29395;218;63005;-59
2023/06/21 01:15:46;;;;;;;0.40;0.40;;;;;;;19.96;76.99;96758.94;29395;244;63009;-58
2023/06/21 01:16:19;;;;;;;0.40;0.40;;;;;;;19.96;77.24;96759.75;29394;198;64009;-50
2023/06/21 01:16:55;;;;;;;0.40;0.40;;;;;;;19.95;77.07;96758.16;29395;248;63009;-59
2023/06/21 01:17:31;;;;;;;0.40;0.40;;;;;;;19.95;76.98;96763.66;29395;282;63004;-58
2023/06/21 01:18:06;;;;;;;0.40;0.40;;;;;;;19.94;77.09;96756.53;29395;268;63009;-58
2023/06/21 01:18:40;;;;;;;0.45;0.45;;;;;;;19.95;76.96;96760.09;29395;279;63004;-59
2023/06/21 01:19:46;;;;;;;0.40;0.40;;;;;;;19.94;77.01;96764.81;29395;290;63009;-59
2023/06/21 01:20:24;;;;;;;0.40;0.40;;;;;;;19.94;76.83;96762.06;29395;211;63006;-58
2023/06/21 01:20:58;;;;;;;0.40;0.40;;;;;;;19.94;77.40;96769.50;29395;197;63009;-58
2023/06/21 01:21:32;;;;;;;0.40;0.40;;;;;;;19.93;77.45;96765.97;29394;254;64009;-58
2023/06/21 01:22:34;;;;;;;0.40;0.40;;;;;;;19.93;76.90;96759.66;29395;236;63009;-50
2023/06/21 01:23:38;;;;;;;0.40;0.40;;;;;;;19.92;77.18;96764.38;29395;221;63005;-58
2023/06/21 01:24:41;;;;;;;0.40;0.40;;;;;;;19.92;77.14;96764.38;29395;293;63009;-58
2023/06/21 01:25:50;;;;;;;0.40;0.40;;;;;;;19.92;77.13;96764.38;29395;212;63004;-50
2023/06/21 01:26:58;;;;;;;0.40;0.40;;;;;;;19.92;77.21;96772.62;29395;209;63009;-59
2023/06/21 01:27:56;;;;;;;0.40;0.40;;;;;;;19.91;76.85;96767.47;29394;240;64013;-60
2023/06/21 01:29:03;;;;;;;0.40;0.40;;;;;;;19.91;77.47;96768.28;29395;217;63005;-59
2023/06/21 01:29:38;;;;;;;0.40;0.40;;;;;;;19.92;77.19;96777.31;29394;253;64013;-58
2023/06/21 01:30:11;;;;;;;0.40;0.40;;;;;;;19.92;77.47;96778.13;29395;199;63005;-58
2023/06/21 01:30:45;;;;;;;0.40;0.40;;;;;;;19.92;77.34;96769.06;29395;223;63009;-60
2023/06/21 01:31:23;;;;;;;0.40;0.40;;;;;;;19.91;77.72;96773.78;29395;231;63015;-59
2023/06/21 01:31:56;;;;;;;0.40;0.40;;;;;;;19.93;77.20;96776.97;29395;207;63024;-59
2023/06/21 01:32:30;;;;;;;0.40;0.40;;;;;;;19.92;77.74;96775.38;29395;233;63017;-50
2023/06/21 01:33:05;;;;;;;0.40;0.40;;;;;;;19.93;77.38;96776.97;29395;248;63009;-58
2023/06/21 01:33:38;;;;;;;0.30;0.30;;;;;;;19.93;77.33;96773.41;29395;199;63004;-58
2023/06/21 01:34:12;;;;;;;0.40;0.40;;;;;;;19.94;77.17;96777.78;29395;272;63009;-50
2023/06/21 01:34:45;;;;;;;0.30;0.30;;;;;;;19.94;77.30;96778.56;29394;228;64008;-59
2023/06/21 01:35:19;;;;;;;0.30;0.30;;;;;;;19.94;77.07;96775.81;29395;216;63025;-58
2023/06/21 01:35:54;;;;;;;0.40;0.40;;;;;;;19.93;77.31;96771.47;29395;229;63001;-52
2023/06/21 01:36:25;;;;;;;0.30;0.30;;;;;;;19.93;76.96;96774.22;29395;206;63009;-49
2023/06/21 01:36:58;;;;;;;0.40;0.40;;;;;;;19.94;77.26;96778.56;29395;197;63005;-60
2023/06/21 01:37:30;;;;;;;0.40;0.40;;;;;;;19.95;77.63;96773.88;29394;295;64009;-59
2023/06/21 01:38:02;;;;;;;0.37;0.37;;;;;;;19.95;77.52;96776.63;29394;278;64005;-60
2023/06/21 01:38:33;;;;;;;0.40;0.40;;;;;;;19.95;77.63;96782.94;29395;245;63023;-51
2023/06/21 01:39:05;;;;;;;0.30;0.30;;;;;;;19.95;77.21;96771.91;29395;219;63004;-58
2023/06/21 01:39:37;;;;;;;0.40;0.40;;;;;;;19.96;77.08;96780.97;29394;230;64013;-59
2023/06/21 01:40:11;;;;;;;0.30;0.30;;;;;;;19.94;77.26;96773.06;29394;197;64009;-59
2023/06/21 01:40:42;;;;;;;0.32;0.32;;;;;;;19.96;77.25;96772.72;29395;296;63009;-60
2023/06/21 01:41:13;;;;;;;0.30;0.30;;;;;;;19.96;77.38;96780.97;29395;218;63004;-51
2023/06/21 01:41:46;;;;;;;0.40;0.40;;;;;;;19.96;77.20;96776.25;29395;243;63008;-58
2023/06/21 01:42:18;;;;;;;0.40;0.40;;;;;;;19.95;77.26;96774.66;29395;205;63004;-50
2023/06/21 01:42:49;;;;;;;0.40;0.40;;;;;;;19.96;77.17;96775.47;29395;274;63023;-59
2023/06/21 01:43:22;;;;;;;0.40;0.40;;;;;;;19.96;77.37;96780.97;29394;273;64009;-51
2023/06/21 01:43:54;;;;;;;0.40;0.40;;;;;;;19.97;77.41;96777.87;29395;207;63009;-51
2023/06/21 01:44:27;;;;;;;0.40;0.40;;;;;;;19.96;77.66;96779.03;29395;242;63005;-60
2023/06/21 01:44:58;;;;;;;0.40;0.40;;;;;;;19.95;76.95;96774.66;29395;196;63009;-60
2023/06/21 01:45:30;;;;;;;0.40;0.40;;;;;;;19.96;77.58;96780.97;29395;295;63005;-50
2023/06/21 01:46:04;;;;;;;0.30;0.30;;;;;;;19.96;77.26;96781.78;29395;314;63009;-57
2023/06/21 01:46:36;;;;;;;0.30;0.30;;;;;;;19.97;77.39;96782.56;29395;246;63004;-50
2023/06/21 01:47:09;;;;;;;0.40;0.40;;;;;;;19.96;77.50;96784.53;29395;302;63009;-50
2023/06/21 01:47:43;;;;;;;0.30;0.30;;;;;;;19.97;77.20;96788.09;29395;199;63004;-59
2023/06/21 01:48:15;;;;;;;0.30;0.30;;;;;;;19.96;77.50;96792.78;29394;338;64009;-60
2023/06/21 01:48:48;;;;;;;0.30;0.30;;;;;;;19.96;77.06;96792.00;29394;272;64009;-58
2023/06/21 01:49:22;;;;;;;0.30;0.30;;;;;;;19.96;77.08;96792.00;29395;196;63008;-59
2023/06/21 01:49:54;;;;;;;0.40;0.40;;;;;;;19.96;77.13;96792.00;29394;292;64009;-59
2023/06/21 01:50:26;;;;;;;0.40;0.40;;;;;;;19.96;77.00;96792.78;29394;231;64014;-59
2023/06/21 01:51:03;;;;;;;0.30;0.30;;;;;;;19.96;76.74;96795.53;29395;199;63005;-58
2023/06/21 01:51:39;;;;;;;0.30;0.30;;;;;;;19.95;76.93;96796.69;29395;250;63009;-58
2023/06/21 01:52:11;;;;;;;0.40;0.40;;;;;;;19.96;76.61;96797.50;29395;199;63005;-58
2023/06/21 01:52:46;;;;;;;0.30;0.30;;;;;;;19.96;76.81;96798.28;29395;224;63009;-57
2023/06/21 01:53:19;;;;;;;0.40;0.40;;;;;;;19.96;76.76;96797.50;29395;199;63009;-59
2023/06/21 01:53:51;;;;;;;0.40;0.40;;;;;;;19.97;76.73;96801.84;29395;208;63009;-58
2023/06/21 01:54:25;;;;;;;0.40;0.40;;;;;;;19.97;76.71;96794.38;29394;233;64009;-59
2023/06/21 01:55:00;;;;;;;0.40;0.40;;;;;;;19.98;76.32;96801.50;29394;271;64013;-58
2023/06/21 01:55:32;;;;;;;0.30;0.30;;;;;;;19.98;76.07;96801.50;29395;196;63004;-58
2023/06/21 01:56:13;;;;;;;0.40;0.40;;;;;;;19.99;76.55;96800.34;29395;294;63004;-51
2023/06/21 01:56:47;;;;;;;0.40;0.40;;;;;;;20.00;76.33;96792.87;29394;286;64008;-59
2023/06/21 01:57:20;;;;;;;0.40;0.40;;;;;;;20.01;75.99;96803.53;29395;337;63009;-59
2023/06/21 01:57:52;;;;;;;0.40;0.40;;;;;;;20.01;75.94;96806.28;29395;259;63014;-52
2023/06/21 01:58:24;;;;;;;0.37;0.37;;;;;;;20.03;76.09;96801.22;29395;289;63018;-59
2023/06/21 01:58:55;;;;;;;0.40;0.40;;;;;;;20.04;75.26;96799.28;29395;249;63005;-58
2023/06/21 01:59:28;;;;;;;0.40;0.40;;;;;;;20.05;75.87;96800.87;29395;282;63009;-60
2023/06/21 02:00:00;;;;;;;0.37;0.37;;;;;;;20.07;75.40;96806.84;29395;204;63005;-59
2023/06/21 02:00:32;;;;;;;0.40;0.40;;;;;;;20.07;75.35;96804.06;29394;258;64013;-52
2023/06/21 02:01:05;;;;;;;0.40;0.40;;;;;;;20.08;75.32;96806.47;29395;218;63005;-59
2023/06/21 02:01:40;;;;;;;0.30;0.30;;;;;;;20.10;75.16;96797.06;29395;343;63009;-59
2023/06/21 02:02:12;;;;;;;0.30;0.30;;;;;;;20.11;75.30;96806.87;29395;198;63004;-58
2023/06/21 02:03:04;;;;;;;0.40;0.40;;;;;;;20.12;75.20;96805.72;29395;252;63009;-60
2023/06/21 02:03:39;;;;;;;;;;;;;;;20.13;75.37;96810.09;29996;983;6000;-59
2023/06/21 02:04:11;;;;;;;0.40;0.40;;;;;;;20.13;74.79;96810.88;29400;206;63004;-58
2023/06/21 02:04:46;;;;;;;0.30;0.30;;;;;;;20.13;74.91;96802.63;29394;189;64013;-58
2023/06/21 02:05:19;;;;;;;0.40;0.40;;;;;;;20.14;75.24;96814.44;29394;247;64009;-58
2023/06/21 02:05:51;;;;;;;0.40;0.40;;;;;;;20.15;75.06;96810.53;29394;232;64014;-59
2023/06/21 02:06:26;;;;;;;0.30;0.30;;;;;;;20.15;75.08;96805.03;29395;271;63005;-59
2023/06/21 02:07:02;;;;;;;0.30;0.30;;;;;;;20.16;75.21;96809.38;29395;251;63009;-58
2023/06/21 02:07:34;;;;;;;0.40;0.40;;;;;;;20.15;74.82;96811.34;29395;263;63017;-59
2023/06/21 02:08:15;;;;;;;0.30;0.30;;;;;;;20.15;75.16;96816.03;29395;239;63009;-59
2023/06/21 02:08:48;;;;;;;;;;;;;;;20.16;75.08;96817.63;29996;983;6000;-58
2023/06/21 02:09:21;;;;;;;0.40;0.40;;;;;;;20.17;75.24;96813.72;29400;300;63004;-61
2023/06/21 02:09:53;;;;;;;0.30;0.30;;;;;;;20.16;75.17;96812.94;29395;220;63009;-60
2023/06/21 02:10:26;;;;;;;0.40;0.40;;;;;;;20.17;75.11;96813.72;29395;263;63004;-59
2023/06/21 02:11:01;;;;;;;0.30;0.30;;;;;;;20.17;75.39;96819.25;29394;197;64013;-59
2023/06/21 02:11:33;;;;;;;0.40;0.40;;;;;;;20.16;75.55;96823.16;29395;281;63004;-58
2023/06/21 02:12:06;;;;;;;0.40;0.40;;;;;;;20.16;74.82;96820.41;29395;196;63008;-52
2023/06/21 02:12:41;;;;;;;0.40;0.40;;;;;;;20.16;75.54;96826.72;29395;356;63005;-58
2023/06/21 02:13:14;;;;;;;0.40;0.40;;;;;;;20.16;75.21;96823.16;29395;247;63009;-59
2023/06/21 02:13:48;;;;;;;0.40;0.40;;;;;;;20.15;75.55;96827.84;29395;283;63005;-59
2023/06/21 02:14:20;;;;;;;0.40;0.40;;;;;;;20.15;75.10;96827.06;29395;204;63009;-59
2023/06/21 02:14:51;;;;;;;0.35;0.35;;;;;;;20.16;75.30;96825.91;29395;210;63005;-59
2023/06/21 02:15:23;;;;;;;0.40;0.40;;;;;;;20.15;74.90;96827.06;29395;202;63009;-51
2023/06/21 02:15:55;;;;;;;0.40;0.40;;;;;;;20.16;75.09;96831.41;29395;295;63008;-58
2023/06/21 02:16:28;;;;;;;0.40;0.40;;;;;;;20.14;75.10;96826.25;29394;345;64013;-59
2023/06/21 02:16:59;;;;;;;0.35;0.35;;;;;;;20.14;75.15;96836.47;29394;274;64009;-59
2023/06/21 02:17:31;;;;;;;0.30;0.30;;;;;;;20.15;75.23;96832.56;29395;233;63009;-59
2023/06/21 02:18:02;;;;;;;0.30;0.30;;;;;;;20.14;75.18;96830.97;29395;238;63004;-60
2023/06/21 02:18:35;;;;;;;0.40;0.40;;;;;;;20.14;75.42;96831.78;29395;243;63009;-59
2023/06/21 02:19:06;;;;;;;0.35;0.35;;;;;;;20.14;75.42;96828.22;29395;212;63000;-59
2023/06/21 02:19:38;;;;;;;0.30;0.30;;;;;;;20.15;75.23;96832.56;29395;378;63008;-50
2023/06/21 02:20:13;;;;;;;0.35;0.35;;;;;;;20.16;75.36;96828.66;29395;202;63005;-50
2023/06/21 02:20:47;;;;;;;0.40;0.40;;;;;;;20.16;74.89;96829.47;29395;206;63009;-60
2023/06/21 02:21:19;;;;;;;0.30;0.30;;;;;;;20.16;75.21;96828.66;29395;203;63005;-51
2023/06/21 02:21:51;;;;;;;0.40;0.40;;;;;;;20.17;75.27;96824.75;29394;235;64013;-60
2023/06/21 02:22:22;;;;;;;0.40;0.40;;;;;;;20.17;75.16;96824.75;29395;193;63005;-59
2023/06/21 02:22:53;;;;;;;0.40;0.40;;;;;;;20.17;75.18;96819.25;29395;239;63009;-59
2023/06/21 02:23:25;;;;;;;0.40;0.40;;;;;;;20.17;75.16;96820.03;29395;250;63005;-52
2023/06/21 02:23:57;;;;;;;0.40;0.40;;;;;;;20.18;74.70;96821.63;29395;261;63009;-58
2023/06/21 02:24:28;;;;;;;0.30;0.30;;;;;;;20.19;74.74;96819.69;29395;276;63009;-59
2023/06/21 02:25:00;;;;;;;0.40;0.40;;;;;;;20.17;74.96;96822.78;29395;351;63009;-60
2023/06/21 02:25:35;;;;;;;0.40;0.40;;;;;;;20.19;75.04;96827.94;29395;246;63004;-51
2023/06/21 02:26:06;;;;;;;0.40;0.40;;;;;;;20.18;74.97;96826.34;29395;283;63009;-60
2023/06/21 02:26:37;;;;;;;0.40;0.40;;;;;;;20.18;74.92;96823.59;29394;203;64008;-57
2023/06/21 02:27:09;;;;;;;0.40;0.40;;;;;;;20.19;74.86;96822.44;29395;197;63008;-51
2023/06/21 02:27:40;;;;;;;0.30;0.30;;;;;;;20.18;74.85;96826.34;29395;203;63005;-59
2023/06/21 02:28:11;;;;;;;0.37;0.37;;;;;;;20.18;74.49;96827.16;29395;215;63009;-51
2023/06/21 02:28:43;;;;;;;0.37;0.37;;;;;;;20.19;74.89;96819.69;29395;202;63005;-59
2023/06/21 02:29:14;;;;;;;0.30;0.30;;;;;;;20.18;74.50;96820.84;29395;340;63009;-58
2023/06/21 02:29:47;;;;;;;0.30;0.30;;;;;;;20.18;74.86;96823.59;29395;221;63005;-59
2023/06/21 02:30:18;;;;;;;0.30;0.30;;;;;;;20.19;74.53;96827.94;29395;249;63009;-51
2023/06/21 02:30:49;;;;;;;0.40;0.40;;;;;;;20.18;74.77;96823.59;29395;308;63005;-60
2023/06/21 02:31:20;;;;;;;0.40;0.40;;;;;;;20.18;74.63;96820.84;29395;212;63009;-59
2023/06/21 02:31:52;;;;;;;0.40;0.40;;;;;;;20.19;74.30;96816.94;29394;328;64009;-59
2023/06/21 02:32:23;;;;;;;0.30;0.30;;;;;;;20.20;74.30;96822.09;29395;287;63024;-51
2023/06/21 02:32:55;;;;;;;0.40;0.40;;;;;;;20.20;74.62;96824.03;29395;197;63004;-51
2023/06/21 02:33:26;;;;;;;0.37;0.37;;;;;;;20.18;74.18;96815.34;29395;205;63009;-59
2023/06/21 02:33:57;;;;;;;0.40;0.40;;;;;;;20.20;74.65;96818.53;29395;357;63007;-59
2023/06/21 02:34:29;;;;;;;0.40;0.40;;;;;;;20.21;74.50;96820.13;29395;260;63008;-59
2023/06/21 02:35:00;;;;;;;0.40;0.40;;;;;;;20.19;74.34;96819.69;29394;392;64008;-59
2023/06/21 02:35:31;;;;;;;0.35;0.35;;;;;;;20.19;74.03;96816.94;29395;246;63009;-60
2023/06/21 02:36:04;;;;;;;0.30;0.30;;;;;;;20.20;74.06;96824.03;29395;232;63005;-60
2023/06/21 02:36:38;;;;;;;0.40;0.40;;;;;;;20.20;74.31;96824.03;29395;342;63026;-60
2023/06/21 02:37:12;;;;;;;0.40;0.40;;;;;;;20.20;74.55;96829.56;29395;224;63005;-50
2023/06/21 02:37:43;;;;;;;0.40;0.40;;;;;;;20.20;74.22;96829.56;29394;202;64013;-58
2023/06/21 02:38:15;;;;;;;0.40;0.40;;;;;;;20.21;74.60;96825.63;29395;228;63005;-51
2023/06/21 02:38:48;;;;;;;0.40;0.40;;;;;;;20.20;74.59;96824.84;29395;237;63009;-60
2023/06/21 02:39:24;;;;;;;0.40;0.40;;;;;;;20.20;74.71;96824.03;29395;241;63004;-59
2023/06/21 02:39:56;;;;;;;0.40;0.40;;;;;;;20.20;74.65;96829.56;29395;330;63009;-58
2023/06/21 02:40:27;;;;;;;0.40;0.40;;;;;;;20.19;74.56;96822.44;29395;274;63004;-59
2023/06/21 02:40:58;;;;;;;0.40;0.40;;;;;;;20.19;74.36;96822.44;29395;257;63009;-58
2023/06/21 02:41:30;;;;;;;0.40;0.40;;;;;;;20.19;74.38;96827.94;29394;211;64009;-50
2023/06/21 02:42:01;;;;;;;0.37;0.37;;;;;;;20.18;74.44;96821.63;29395;279;63008;-58
2023/06/21 02:42:32;;;;;;;0.40;0.40;;;;;;;20.19;74.44;96827.94;29395;218;63004;-58
2023/06/21 02:43:04;;;;;;;0.30;0.30;;;;;;;20.18;74.26;96826.34;29395;199;63009;-59
2023/06/21 02:43:35;;;;;;;0.30;0.30;;;;;;;20.18;74.41;96818.09;29395;248;63005;-58
2023/06/21 02:44:07;;;;;;;0.30;0.30;;;;;;;20.18;74.03;96827.16;29395;264;63009;-58
2023/06/21 02:44:38;;;;;;;0.30;0.30;;;;;;;20.19;74.03;96827.94;29395;270;63005;-51
2023/06/21 02:45:10;;;;;;;0.30;0.30;;;;;;;20.18;74.17;96826.34;29395;269;63009;-59
2023/06/21 02:45:42;;;;;;;0.40;0.40;;;;;;;20.17;74.18;96822.78;29394;274;64009;-59